sensor_id;sensor_type;location;lat;lon;timestamp;P1;durP1;ratioP1;P2;durP2;ratioP2
7515;SDS011;3799;47.184;8.538;2023-08-01T00:00:05;4.53;;;1.70;;
7515;SDS011;3799;47.184;8.538;2023-08-01T00:02:35;4.65;;;2.13;;
7515;SDS011;3799;47.184;8.538;2023-08-01T00:05:02;4.60;;;2.10;;
7515;SDS011;3799;47.184;8.538;2023-08-01T00:07:30;4.22;;;1.90;;
7515;SDS011;3799;47.184;8.538;2023-08-01T00:09:58;3.22;;;1.60;;
7515;SDS011;3799;47.184;8.538;2023-08-01T00:12:26;3.50;;;1.92;;
7515;SDS011;3799;47.184;8.538;2023-08-01T00:14:54;4.55;;;2.20;;
7515;SDS011;3799;47.184;8.538;2023-08-01T00:17:21;4.18;;;1.90;;
7515;SDS011;3799;47.184;8.538;2023-08-01T00:19:48;4.70;;;1.92;;
7515;SDS011;3799;47.184;8.538;2023-08-01T00:22:15;6.25;;;1.90;;
7515;SDS011;3799;47.184;8.538;2023-08-01T00:24:42;5.07;;;1.83;;
7515;SDS011;3799;47.184;8.538;2023-08-01T00:27:10;3.75;;;1.70;;
7515;SDS011;3799;47.184;8.538;2023-08-01T00:29:37;4.38;;;1.80;;
7515;SDS011;3799;47.184;8.538;2023-08-01T00:32:04;5.38;;;1.90;;
7515;SDS011;3799;47.184;8.538;2023-08-01T00:34:31;7.05;;;2.25;;
7515;SDS011;3799;47.184;8.538;2023-08-01T00:36:59;4.35;;;1.70;;
7515;SDS011;3799;47.184;8.538;2023-08-01T00:39:26;5.43;;;2.10;;
7515;SDS011;3799;47.184;8.538;2023-08-01T00:41:53;4.30;;;1.90;;
7515;SDS011;3799;47.184;8.538;2023-08-01T00:44:20;4.78;;;1.58;;
7515;SDS011;3799;47.184;8.538;2023-08-01T00:46:47;5.35;;;1.75;;
7515;SDS011;3799;47.184;8.538;2023-08-01T00:49:15;4.22;;;1.98;;
7515;SDS011;3799;47.184;8.538;2023-08-01T00:51:43;3.53;;;1.73;;
7515;SDS011;3799;47.184;8.538;2023-08-01T00:54:10;5.78;;;1.83;;
7515;SDS011;3799;47.184;8.538;2023-08-01T00:56:37;6.93;;;1.67;;
7515;SDS011;3799;47.184;8.538;2023-08-01T00:59:05;3.63;;;1.92;;
7515;SDS011;3799;47.184;8.538;2023-08-01T01:01:32;4.07;;;1.70;;
7515;SDS011;3799;47.184;8.538;2023-08-01T01:04:00;4.75;;;1.92;;
7515;SDS011;3799;47.184;8.538;2023-08-01T01:09:18;3.90;;;2.15;;
7515;SDS011;3799;47.184;8.538;2023-08-01T01:11:46;5.10;;;1.95;;
7515;SDS011;3799;47.184;8.538;2023-08-01T01:14:13;4.05;;;1.75;;
7515;SDS011;3799;47.184;8.538;2023-08-01T01:16:41;4.95;;;1.92;;
7515;SDS011;3799;47.184;8.538;2023-08-01T01:19:08;3.33;;;1.50;;
7515;SDS011;3799;47.184;8.538;2023-08-01T01:24:44;4.63;;;1.75;;
7515;SDS011;3799;47.184;8.538;2023-08-01T01:27:13;4.13;;;1.67;;
7515;SDS011;3799;47.184;8.538;2023-08-01T01:29:43;4.50;;;2.15;;
7515;SDS011;3799;47.184;8.538;2023-08-01T01:32:11;7.20;;;2.30;;
7515;SDS011;3799;47.184;8.538;2023-08-01T01:34:39;3.95;;;2.00;;
7515;SDS011;3799;47.184;8.538;2023-08-01T01:37:06;7.07;;;2.15;;
7515;SDS011;3799;47.184;8.538;2023-08-01T01:39:45;5.22;;;2.22;;
7515;SDS011;3799;47.184;8.538;2023-08-01T01:42:12;6.43;;;2.00;;
7515;SDS011;3799;47.184;8.538;2023-08-01T01:44:43;5.80;;;2.00;;
7515;SDS011;3799;47.184;8.538;2023-08-01T01:47:10;3.90;;;2.00;;
7515;SDS011;3799;47.184;8.538;2023-08-01T01:49:37;4.05;;;1.92;;
7515;SDS011;3799;47.184;8.538;2023-08-01T01:52:05;4.28;;;1.95;;
7515;SDS011;3799;47.184;8.538;2023-08-01T01:54:34;4.72;;;2.10;;
7515;SDS011;3799;47.184;8.538;2023-08-01T01:57:01;6.43;;;2.20;;
7515;SDS011;3799;47.184;8.538;2023-08-01T01:59:29;4.97;;;2.03;;
7515;SDS011;3799;47.184;8.538;2023-08-01T02:01:56;4.25;;;1.88;;
7515;SDS011;3799;47.184;8.538;2023-08-01T02:04:23;4.32;;;2.00;;
7515;SDS011;3799;47.184;8.538;2023-08-01T02:06:54;5.70;;;1.90;;
7515;SDS011;3799;47.184;8.538;2023-08-01T02:09:21;6.50;;;2.08;;
7515;SDS011;3799;47.184;8.538;2023-08-01T02:11:48;5.72;;;2.17;;
7515;SDS011;3799;47.184;8.538;2023-08-01T02:14:15;4.55;;;1.92;;
7515;SDS011;3799;47.184;8.538;2023-08-01T02:16:43;5.72;;;2.35;;
7515;SDS011;3799;47.184;8.538;2023-08-01T02:19:10;4.72;;;2.08;;
7515;SDS011;3799;47.184;8.538;2023-08-01T02:21:37;3.90;;;1.85;;
7515;SDS011;3799;47.184;8.538;2023-08-01T02:24:05;4.72;;;2.00;;
7515;SDS011;3799;47.184;8.538;2023-08-01T02:26:32;3.58;;;2.05;;
7515;SDS011;3799;47.184;8.538;2023-08-01T02:28:59;4.53;;;1.70;;
7515;SDS011;3799;47.184;8.538;2023-08-01T02:31:26;3.80;;;1.58;;
7515;SDS011;3799;47.184;8.538;2023-08-01T02:33:53;4.43;;;1.95;;
7515;SDS011;3799;47.184;8.538;2023-08-01T02:36:21;5.32;;;2.15;;
7515;SDS011;3799;47.184;8.538;2023-08-01T02:38:50;6.10;;;2.03;;
7515;SDS011;3799;47.184;8.538;2023-08-01T02:41:17;3.92;;;1.92;;
7515;SDS011;3799;47.184;8.538;2023-08-01T02:43:44;5.10;;;2.00;;
7515;SDS011;3799;47.184;8.538;2023-08-01T02:46:11;5.10;;;2.17;;
7515;SDS011;3799;47.184;8.538;2023-08-01T02:48:38;4.43;;;1.85;;
7515;SDS011;3799;47.184;8.538;2023-08-01T02:51:06;4.63;;;2.05;;
7515;SDS011;3799;47.184;8.538;2023-08-01T02:53:36;3.92;;;2.05;;
7515;SDS011;3799;47.184;8.538;2023-08-01T02:56:04;4.07;;;2.20;;
7515;SDS011;3799;47.184;8.538;2023-08-01T02:58:34;4.00;;;2.13;;
7515;SDS011;3799;47.184;8.538;2023-08-01T03:01:01;4.28;;;2.17;;
7515;SDS011;3799;47.184;8.538;2023-08-01T03:03:33;5.00;;;2.10;;
7515;SDS011;3799;47.184;8.538;2023-08-01T03:06:03;5.90;;;2.40;;
7515;SDS011;3799;47.184;8.538;2023-08-01T03:08:35;4.78;;;2.13;;
7515;SDS011;3799;47.184;8.538;2023-08-01T03:11:02;3.70;;;2.03;;
7515;SDS011;3799;47.184;8.538;2023-08-01T03:14:04;4.53;;;1.90;;
7515;SDS011;3799;47.184;8.538;2023-08-01T03:16:38;6.97;;;2.25;;
7515;SDS011;3799;47.184;8.538;2023-08-01T03:19:06;5.13;;;2.22;;
7515;SDS011;3799;47.184;8.538;2023-08-01T03:21:34;5.28;;;2.25;;
7515;SDS011;3799;47.184;8.538;2023-08-01T03:24:02;5.60;;;2.25;;
7515;SDS011;3799;47.184;8.538;2023-08-01T03:26:32;5.30;;;2.40;;
7515;SDS011;3799;47.184;8.538;2023-08-01T03:29:00;5.28;;;2.38;;
7515;SDS011;3799;47.184;8.538;2023-08-01T03:31:29;5.55;;;2.10;;
7515;SDS011;3799;47.184;8.538;2023-08-01T03:33:57;4.35;;;2.25;;
7515;SDS011;3799;47.184;8.538;2023-08-01T03:36:25;5.70;;;2.20;;
7515;SDS011;3799;47.184;8.538;2023-08-01T03:39:00;5.35;;;1.95;;
7515;SDS011;3799;47.184;8.538;2023-08-01T03:41:27;4.47;;;1.90;;
7515;SDS011;3799;47.184;8.538;2023-08-01T03:44:11;4.75;;;2.25;;
7515;SDS011;3799;47.184;8.538;2023-08-01T03:46:38;4.78;;;2.00;;
7515;SDS011;3799;47.184;8.538;2023-08-01T03:49:06;4.72;;;2.38;;
7515;SDS011;3799;47.184;8.538;2023-08-01T03:51:33;7.55;;;2.45;;
7515;SDS011;3799;47.184;8.538;2023-08-01T03:54:00;5.15;;;2.38;;
7515;SDS011;3799;47.184;8.538;2023-08-01T03:56:39;5.30;;;2.38;;
7515;SDS011;3799;47.184;8.538;2023-08-01T03:59:13;6.20;;;1.88;;
7515;SDS011;3799;47.184;8.538;2023-08-01T04:01:44;4.60;;;1.88;;
7515;SDS011;3799;47.184;8.538;2023-08-01T04:04:11;5.90;;;2.08;;
7515;SDS011;3799;47.184;8.538;2023-08-01T04:06:38;3.60;;;1.88;;
7515;SDS011;3799;47.184;8.538;2023-08-01T04:09:09;4.40;;;1.95;;
7515;SDS011;3799;47.184;8.538;2023-08-01T04:11:36;5.30;;;1.98;;
7515;SDS011;3799;47.184;8.538;2023-08-01T04:14:03;4.43;;;2.30;;
7515;SDS011;3799;47.184;8.538;2023-08-01T04:16:30;5.10;;;1.90;;
7515;SDS011;3799;47.184;8.538;2023-08-01T04:18:57;3.90;;;1.98;;
7515;SDS011;3799;47.184;8.538;2023-08-01T04:21:25;5.28;;;2.22;;
7515;SDS011;3799;47.184;8.538;2023-08-01T04:23:52;6.65;;;2.10;;
7515;SDS011;3799;47.184;8.538;2023-08-01T04:26:19;5.10;;;2.00;;
7515;SDS011;3799;47.184;8.538;2023-08-01T04:28:46;5.28;;;1.95;;
7515;SDS011;3799;47.184;8.538;2023-08-01T04:31:14;4.72;;;2.25;;
7515;SDS011;3799;47.184;8.538;2023-08-01T04:33:42;4.63;;;2.13;;
7515;SDS011;3799;47.184;8.538;2023-08-01T04:36:10;7.40;;;2.47;;
7515;SDS011;3799;47.184;8.538;2023-08-01T04:38:38;5.25;;;1.90;;
7515;SDS011;3799;47.184;8.538;2023-08-01T04:41:05;6.18;;;2.45;;
7515;SDS011;3799;47.184;8.538;2023-08-01T04:43:33;3.35;;;1.70;;
7515;SDS011;3799;47.184;8.538;2023-08-01T04:46:00;4.32;;;1.80;;
7515;SDS011;3799;47.184;8.538;2023-08-01T04:48:27;5.68;;;2.47;;
7515;SDS011;3799;47.184;8.538;2023-08-01T04:50:54;5.47;;;2.28;;
7515;SDS011;3799;47.184;8.538;2023-08-01T04:53:21;4.82;;;1.95;;
7515;SDS011;3799;47.184;8.538;2023-08-01T04:55:51;5.00;;;2.22;;
7515;SDS011;3799;47.184;8.538;2023-08-01T04:58:18;4.80;;;1.83;;
7515;SDS011;3799;47.184;8.538;2023-08-01T05:00:46;4.65;;;1.98;;
7515;SDS011;3799;47.184;8.538;2023-08-01T05:03:13;5.60;;;2.40;;
7515;SDS011;3799;47.184;8.538;2023-08-01T05:05:40;4.03;;;1.88;;
7515;SDS011;3799;47.184;8.538;2023-08-01T05:08:07;4.85;;;2.00;;
7515;SDS011;3799;47.184;8.538;2023-08-01T05:10:34;5.10;;;2.03;;
7515;SDS011;3799;47.184;8.538;2023-08-01T05:13:02;5.07;;;2.20;;
7515;SDS011;3799;47.184;8.538;2023-08-01T05:15:29;5.15;;;2.00;;
7515;SDS011;3799;47.184;8.538;2023-08-01T05:18:00;4.25;;;1.85;;
7515;SDS011;3799;47.184;8.538;2023-08-01T05:20:32;3.42;;;1.58;;
7515;SDS011;3799;47.184;8.538;2023-08-01T05:23:10;4.40;;;1.73;;
7515;SDS011;3799;47.184;8.538;2023-08-01T05:28:10;6.03;;;3.10;;
7515;SDS011;3799;47.184;8.538;2023-08-01T05:30:39;6.38;;;1.98;;
7515;SDS011;3799;47.184;8.538;2023-08-01T05:33:07;5.03;;;2.40;;
7515;SDS011;3799;47.184;8.538;2023-08-01T05:35:34;3.83;;;2.05;;
7515;SDS011;3799;47.184;8.538;2023-08-01T05:38:01;3.70;;;1.85;;
7515;SDS011;3799;47.184;8.538;2023-08-01T05:40:29;5.10;;;1.83;;
7515;SDS011;3799;47.184;8.538;2023-08-01T05:42:57;3.97;;;1.85;;
7515;SDS011;3799;47.184;8.538;2023-08-01T05:45:25;6.45;;;2.10;;
7515;SDS011;3799;47.184;8.538;2023-08-01T05:47:52;4.32;;;2.03;;
7515;SDS011;3799;47.184;8.538;2023-08-01T05:50:20;4.63;;;1.85;;
7515;SDS011;3799;47.184;8.538;2023-08-01T05:52:47;6.60;;;2.10;;
7515;SDS011;3799;47.184;8.538;2023-08-01T05:55:14;4.47;;;1.70;;
7515;SDS011;3799;47.184;8.538;2023-08-01T05:57:42;4.75;;;1.90;;
7515;SDS011;3799;47.184;8.538;2023-08-01T06:00:10;5.07;;;1.23;;
7515;SDS011;3799;47.184;8.538;2023-08-01T06:02:38;4.15;;;1.80;;
7515;SDS011;3799;47.184;8.538;2023-08-01T06:05:06;7.47;;;1.92;;
7515;SDS011;3799;47.184;8.538;2023-08-01T06:07:33;3.63;;;1.67;;
7515;SDS011;3799;47.184;8.538;2023-08-01T06:10:01;3.80;;;1.80;;
7515;SDS011;3799;47.184;8.538;2023-08-01T06:12:28;5.38;;;1.98;;
7515;SDS011;3799;47.184;8.538;2023-08-01T06:14:58;4.35;;;1.40;;
7515;SDS011;3799;47.184;8.538;2023-08-01T06:17:25;4.90;;;1.80;;
7515;SDS011;3799;47.184;8.538;2023-08-01T06:19:52;5.32;;;1.85;;
7515;SDS011;3799;47.184;8.538;2023-08-01T06:22:21;3.38;;;1.55;;
7515;SDS011;3799;47.184;8.538;2023-08-01T06:24:48;5.30;;;1.75;;
7515;SDS011;3799;47.184;8.538;2023-08-01T06:27:15;3.97;;;1.92;;
7515;SDS011;3799;47.184;8.538;2023-08-01T06:29:42;4.22;;;1.73;;
7515;SDS011;3799;47.184;8.538;2023-08-01T06:32:10;4.35;;;2.03;;
7515;SDS011;3799;47.184;8.538;2023-08-01T06:34:38;5.75;;;2.20;;
7515;SDS011;3799;47.184;8.538;2023-08-01T06:37:05;4.88;;;1.90;;
7515;SDS011;3799;47.184;8.538;2023-08-01T06:39:32;4.85;;;1.85;;
7515;SDS011;3799;47.184;8.538;2023-08-01T06:42:00;5.28;;;1.90;;
7515;SDS011;3799;47.184;8.538;2023-08-01T06:44:27;3.88;;;2.00;;
7515;SDS011;3799;47.184;8.538;2023-08-01T06:46:56;4.05;;;1.98;;
7515;SDS011;3799;47.184;8.538;2023-08-01T06:49:24;3.70;;;2.03;;
7515;SDS011;3799;47.184;8.538;2023-08-01T06:51:51;4.30;;;1.80;;
7515;SDS011;3799;47.184;8.538;2023-08-01T06:54:18;5.20;;;1.95;;
7515;SDS011;3799;47.184;8.538;2023-08-01T06:56:45;4.60;;;2.10;;
7515;SDS011;3799;47.184;8.538;2023-08-01T06:59:15;4.97;;;2.35;;
7515;SDS011;3799;47.184;8.538;2023-08-01T07:01:43;6.03;;;1.63;;
7515;SDS011;3799;47.184;8.538;2023-08-01T07:04:11;4.47;;;1.77;;
7515;SDS011;3799;47.184;8.538;2023-08-01T07:06:39;5.05;;;1.65;;
7515;SDS011;3799;47.184;8.538;2023-08-01T07:09:07;4.88;;;2.13;;
7515;SDS011;3799;47.184;8.538;2023-08-01T07:11:34;4.70;;;1.75;;
7515;SDS011;3799;47.184;8.538;2023-08-01T07:14:01;5.00;;;1.92;;
7515;SDS011;3799;47.184;8.538;2023-08-01T07:16:28;5.07;;;1.55;;
7515;SDS011;3799;47.184;8.538;2023-08-01T07:19:00;4.10;;;2.03;;
7515;SDS011;3799;47.184;8.538;2023-08-01T07:21:29;5.72;;;2.30;;
7515;SDS011;3799;47.184;8.538;2023-08-01T07:23:56;4.43;;;1.85;;
7515;SDS011;3799;47.184;8.538;2023-08-01T07:26:24;4.07;;;1.80;;
7515;SDS011;3799;47.184;8.538;2023-08-01T07:28:51;3.63;;;2.20;;
7515;SDS011;3799;47.184;8.538;2023-08-01T07:31:21;4.57;;;1.52;;
7515;SDS011;3799;47.184;8.538;2023-08-01T07:33:48;4.38;;;1.65;;
7515;SDS011;3799;47.184;8.538;2023-08-01T07:36:20;4.38;;;2.00;;
7515;SDS011;3799;47.184;8.538;2023-08-01T07:38:48;6.57;;;1.83;;
7515;SDS011;3799;47.184;8.538;2023-08-01T07:41:15;3.85;;;1.70;;
7515;SDS011;3799;47.184;8.538;2023-08-01T07:43:42;4.75;;;1.85;;
7515;SDS011;3799;47.184;8.538;2023-08-01T07:46:09;4.70;;;1.58;;
7515;SDS011;3799;47.184;8.538;2023-08-01T07:48:39;5.55;;;1.90;;
7515;SDS011;3799;47.184;8.538;2023-08-01T07:51:06;5.85;;;2.05;;
7515;SDS011;3799;47.184;8.538;2023-08-01T07:53:34;4.05;;;2.03;;
7515;SDS011;3799;47.184;8.538;2023-08-01T07:56:03;9.50;;;2.47;;
7515;SDS011;3799;47.184;8.538;2023-08-01T07:58:33;5.45;;;2.65;;
7515;SDS011;3799;47.184;8.538;2023-08-01T08:01:06;4.43;;;2.20;;
7515;SDS011;3799;47.184;8.538;2023-08-01T08:03:33;3.35;;;1.77;;
7515;SDS011;3799;47.184;8.538;2023-08-01T08:06:00;4.32;;;1.80;;
7515;SDS011;3799;47.184;8.538;2023-08-01T08:08:30;4.55;;;1.90;;
7515;SDS011;3799;47.184;8.538;2023-08-01T08:11:03;5.55;;;2.22;;
7515;SDS011;3799;47.184;8.538;2023-08-01T08:13:31;5.00;;;1.85;;
7515;SDS011;3799;47.184;8.538;2023-08-01T08:15:58;7.07;;;2.30;;
7515;SDS011;3799;47.184;8.538;2023-08-01T08:18:26;6.43;;;1.85;;
7515;SDS011;3799;47.184;8.538;2023-08-01T08:20:54;4.70;;;1.80;;
7515;SDS011;3799;47.184;8.538;2023-08-01T08:23:22;4.60;;;2.15;;
7515;SDS011;3799;47.184;8.538;2023-08-01T08:25:53;3.42;;;1.85;;
7515;SDS011;3799;47.184;8.538;2023-08-01T08:28:28;9.35;;;2.55;;
7515;SDS011;3799;47.184;8.538;2023-08-01T08:30:56;4.03;;;1.75;;
7515;SDS011;3799;47.184;8.538;2023-08-01T08:33:24;5.50;;;2.20;;
7515;SDS011;3799;47.184;8.538;2023-08-01T08:35:51;5.53;;;2.10;;
7515;SDS011;3799;47.184;8.538;2023-08-01T08:38:18;5.47;;;2.17;;
7515;SDS011;3799;47.184;8.538;2023-08-01T08:41:02;5.05;;;2.13;;
7515;SDS011;3799;47.184;8.538;2023-08-01T08:43:32;3.42;;;1.45;;
7515;SDS011;3799;47.184;8.538;2023-08-01T08:46:01;5.30;;;1.85;;
7515;SDS011;3799;47.184;8.538;2023-08-01T08:48:29;4.18;;;2.03;;
7515;SDS011;3799;47.184;8.538;2023-08-01T08:51:01;5.20;;;2.25;;
7515;SDS011;3799;47.184;8.538;2023-08-01T08:53:30;5.75;;;2.53;;
7515;SDS011;3799;47.184;8.538;2023-08-01T08:55:59;4.57;;;2.10;;
7515;SDS011;3799;47.184;8.538;2023-08-01T08:58:31;5.25;;;2.22;;
7515;SDS011;3799;47.184;8.538;2023-08-01T09:01:01;4.95;;;1.90;;
7515;SDS011;3799;47.184;8.538;2023-08-01T09:03:29;4.80;;;1.92;;
7515;SDS011;3799;47.184;8.538;2023-08-01T09:06:00;5.90;;;2.17;;
7515;SDS011;3799;47.184;8.538;2023-08-01T09:08:32;5.63;;;2.33;;
7515;SDS011;3799;47.184;8.538;2023-08-01T09:11:03;5.97;;;2.20;;
7515;SDS011;3799;47.184;8.538;2023-08-01T09:13:31;5.15;;;2.80;;
7515;SDS011;3799;47.184;8.538;2023-08-01T09:15:58;7.22;;;3.47;;
7515;SDS011;3799;47.184;8.538;2023-08-01T09:18:28;6.60;;;3.70;;
7515;SDS011;3799;47.184;8.538;2023-08-01T09:20:55;5.55;;;2.55;;
7515;SDS011;3799;47.184;8.538;2023-08-01T09:23:29;4.47;;;2.65;;
7515;SDS011;3799;47.184;8.538;2023-08-01T09:25:57;4.95;;;2.17;;
7515;SDS011;3799;47.184;8.538;2023-08-01T09:28:26;5.35;;;2.10;;
7515;SDS011;3799;47.184;8.538;2023-08-01T09:30:54;6.25;;;2.40;;
7515;SDS011;3799;47.184;8.538;2023-08-01T09:33:23;4.90;;;2.40;;
7515;SDS011;3799;47.184;8.538;2023-08-01T09:35:54;6.03;;;2.30;;
7515;SDS011;3799;47.184;8.538;2023-08-01T09:38:24;6.38;;;2.40;;
7515;SDS011;3799;47.184;8.538;2023-08-01T09:40:53;6.65;;;2.42;;
7515;SDS011;3799;47.184;8.538;2023-08-01T09:43:21;6.45;;;2.50;;
7515;SDS011;3799;47.184;8.538;2023-08-01T09:45:54;6.68;;;2.22;;
7515;SDS011;3799;47.184;8.538;2023-08-01T09:48:25;5.95;;;2.72;;
7515;SDS011;3799;47.184;8.538;2023-08-01T09:53:50;5.20;;;2.20;;
7515;SDS011;3799;47.184;8.538;2023-08-01T09:56:26;5.32;;;2.42;;
7515;SDS011;3799;47.184;8.538;2023-08-01T09:58:54;5.78;;;2.80;;
7515;SDS011;3799;47.184;8.538;2023-08-01T10:01:23;7.70;;;2.72;;
7515;SDS011;3799;47.184;8.538;2023-08-01T10:03:52;5.28;;;2.40;;
7515;SDS011;3799;47.184;8.538;2023-08-01T10:06:24;5.28;;;2.13;;
7515;SDS011;3799;47.184;8.538;2023-08-01T10:08:55;5.55;;;2.50;;
7515;SDS011;3799;47.184;8.538;2023-08-01T10:11:23;17.77;;;9.65;;
7515;SDS011;3799;47.184;8.538;2023-08-01T10:13:50;8.02;;;4.20;;
7515;SDS011;3799;47.184;8.538;2023-08-01T10:16:18;5.88;;;3.00;;
7515;SDS011;3799;47.184;8.538;2023-08-01T10:18:45;9.25;;;3.30;;
7515;SDS011;3799;47.184;8.538;2023-08-01T10:21:14;5.63;;;2.30;;
7515;SDS011;3799;47.184;8.538;2023-08-01T10:23:43;6.22;;;2.95;;
7515;SDS011;3799;47.184;8.538;2023-08-01T10:26:12;5.75;;;2.30;;
7515;SDS011;3799;47.184;8.538;2023-08-01T10:28:49;6.10;;;2.50;;
7515;SDS011;3799;47.184;8.538;2023-08-01T10:33:49;5.78;;;2.30;;
7515;SDS011;3799;47.184;8.538;2023-08-01T10:36:17;6.32;;;2.35;;
7515;SDS011;3799;47.184;8.538;2023-08-01T10:38:47;7.30;;;3.10;;
7515;SDS011;3799;47.184;8.538;2023-08-01T10:49:34;6.22;;;2.70;;
7515;SDS011;3799;47.184;8.538;2023-08-01T10:52:23;4.78;;;1.75;;
7515;SDS011;3799;47.184;8.538;2023-08-01T10:55:13;5.10;;;2.13;;
7515;SDS011;3799;47.184;8.538;2023-08-01T10:57:48;4.63;;;2.25;;
7515;SDS011;3799;47.184;8.538;2023-08-01T11:00:16;7.05;;;2.60;;
7515;SDS011;3799;47.184;8.538;2023-08-01T11:02:50;5.45;;;2.40;;
7515;SDS011;3799;47.184;8.538;2023-08-01T11:05:20;6.82;;;2.70;;
7515;SDS011;3799;47.184;8.538;2023-08-01T11:07:55;5.50;;;2.65;;
7515;SDS011;3799;47.184;8.538;2023-08-01T11:10:28;6.40;;;2.25;;
7515;SDS011;3799;47.184;8.538;2023-08-01T11:12:57;7.13;;;2.40;;
7515;SDS011;3799;47.184;8.538;2023-08-01T11:15:25;6.82;;;2.70;;
7515;SDS011;3799;47.184;8.538;2023-08-01T11:17:53;4.53;;;2.22;;
7515;SDS011;3799;47.184;8.538;2023-08-01T11:20:22;4.53;;;2.13;;
7515;SDS011;3799;47.184;8.538;2023-08-01T11:22:54;4.13;;;1.88;;
7515;SDS011;3799;47.184;8.538;2023-08-01T11:26:01;6.68;;;2.30;;
7515;SDS011;3799;47.184;8.538;2023-08-01T11:28:21;4.60;;;2.22;;
7515;SDS011;3799;47.184;8.538;2023-08-01T11:30:49;4.75;;;2.20;;
7515;SDS011;3799;47.184;8.538;2023-08-01T11:33:22;4.72;;;2.45;;
7515;SDS011;3799;47.184;8.538;2023-08-01T11:35:59;4.45;;;2.35;;
7515;SDS011;3799;47.184;8.538;2023-08-01T11:38:27;5.53;;;2.50;;
7515;SDS011;3799;47.184;8.538;2023-08-01T11:43:37;6.28;;;2.28;;
7515;SDS011;3799;47.184;8.538;2023-08-01T11:46:08;4.43;;;2.20;;
7515;SDS011;3799;47.184;8.538;2023-08-01T11:48:36;6.63;;;2.95;;
7515;SDS011;3799;47.184;8.538;2023-08-01T11:51:03;5.43;;;2.22;;
7515;SDS011;3799;47.184;8.538;2023-08-01T11:53:33;4.80;;;2.17;;
7515;SDS011;3799;47.184;8.538;2023-08-01T11:56:06;5.30;;;2.25;;
7515;SDS011;3799;47.184;8.538;2023-08-01T11:58:37;5.43;;;2.40;;
7515;SDS011;3799;47.184;8.538;2023-08-01T12:01:15;4.95;;;2.40;;
7515;SDS011;3799;47.184;8.538;2023-08-01T12:03:47;6.45;;;2.67;;
7515;SDS011;3799;47.184;8.538;2023-08-01T12:06:19;5.00;;;2.45;;
7515;SDS011;3799;47.184;8.538;2023-08-01T12:08:51;5.40;;;2.63;;
7515;SDS011;3799;47.184;8.538;2023-08-01T12:14:07;4.85;;;2.17;;
7515;SDS011;3799;47.184;8.538;2023-08-01T12:16:40;4.25;;;2.13;;
7515;SDS011;3799;47.184;8.538;2023-08-01T12:19:19;5.75;;;2.17;;
7515;SDS011;3799;47.184;8.538;2023-08-01T12:21:47;5.05;;;2.30;;
7515;SDS011;3799;47.184;8.538;2023-08-01T12:24:15;5.22;;;2.30;;
7515;SDS011;3799;47.184;8.538;2023-08-01T12:26:42;5.78;;;2.20;;
7515;SDS011;3799;47.184;8.538;2023-08-01T12:29:10;4.55;;;2.55;;
7515;SDS011;3799;47.184;8.538;2023-08-01T12:31:38;7.55;;;2.10;;
7515;SDS011;3799;47.184;8.538;2023-08-01T12:34:06;4.95;;;1.90;;
7515;SDS011;3799;47.184;8.538;2023-08-01T12:36:33;4.40;;;2.10;;
7515;SDS011;3799;47.184;8.538;2023-08-01T12:39:01;3.88;;;1.98;;
7515;SDS011;3799;47.184;8.538;2023-08-01T12:41:29;5.40;;;2.30;;
7515;SDS011;3799;47.184;8.538;2023-08-01T12:43:57;4.18;;;2.00;;
7515;SDS011;3799;47.184;8.538;2023-08-01T12:46:24;6.32;;;2.40;;
7515;SDS011;3799;47.184;8.538;2023-08-01T12:48:51;4.88;;;2.22;;
7515;SDS011;3799;47.184;8.538;2023-08-01T12:51:18;4.45;;;2.25;;
7515;SDS011;3799;47.184;8.538;2023-08-01T12:53:46;4.60;;;2.10;;
7515;SDS011;3799;47.184;8.538;2023-08-01T12:56:13;4.80;;;1.75;;
7515;SDS011;3799;47.184;8.538;2023-08-01T12:58:40;3.70;;;1.60;;
7515;SDS011;3799;47.184;8.538;2023-08-01T13:01:07;3.65;;;1.35;;
7515;SDS011;3799;47.184;8.538;2023-08-01T13:03:34;4.15;;;1.50;;
7515;SDS011;3799;47.184;8.538;2023-08-01T13:06:02;3.60;;;1.42;;
7515;SDS011;3799;47.184;8.538;2023-08-01T13:08:32;3.25;;;1.40;;
7515;SDS011;3799;47.184;8.538;2023-08-01T13:11:11;3.20;;;1.20;;
7515;SDS011;3799;47.184;8.538;2023-08-01T13:13:47;3.08;;;1.38;;
7515;SDS011;3799;47.184;8.538;2023-08-01T13:16:20;2.47;;;0.90;;
7515;SDS011;3799;47.184;8.538;2023-08-01T13:18:47;3.60;;;1.23;;
7515;SDS011;3799;47.184;8.538;2023-08-01T13:21:14;2.58;;;1.10;;
7515;SDS011;3799;47.184;8.538;2023-08-01T13:23:42;3.60;;;1.38;;
7515;SDS011;3799;47.184;8.538;2023-08-01T13:26:09;3.20;;;1.27;;
7515;SDS011;3799;47.184;8.538;2023-08-01T13:28:37;2.85;;;1.10;;
7515;SDS011;3799;47.184;8.538;2023-08-01T13:31:04;3.60;;;1.58;;
7515;SDS011;3799;47.184;8.538;2023-08-01T13:33:32;4.72;;;1.30;;
7515;SDS011;3799;47.184;8.538;2023-08-01T13:35:59;3.05;;;1.58;;
7515;SDS011;3799;47.184;8.538;2023-08-01T13:38:26;3.60;;;1.30;;
7515;SDS011;3799;47.184;8.538;2023-08-01T13:41:01;2.95;;;1.10;;
7515;SDS011;3799;47.184;8.538;2023-08-01T13:43:32;2.95;;;1.13;;
7515;SDS011;3799;47.184;8.538;2023-08-01T13:46:00;3.95;;;1.42;;
7515;SDS011;3799;47.184;8.538;2023-08-01T13:48:33;3.55;;;1.50;;
7515;SDS011;3799;47.184;8.538;2023-08-01T13:51:00;3.17;;;1.08;;
7515;SDS011;3799;47.184;8.538;2023-08-01T13:53:27;3.22;;;1.20;;
7515;SDS011;3799;47.184;8.538;2023-08-01T13:55:54;3.22;;;1.45;;
7515;SDS011;3799;47.184;8.538;2023-08-01T13:58:22;3.17;;;1.15;;
7515;SDS011;3799;47.184;8.538;2023-08-01T14:00:49;5.30;;;1.50;;
7515;SDS011;3799;47.184;8.538;2023-08-01T14:03:17;3.17;;;1.33;;
7515;SDS011;3799;47.184;8.538;2023-08-01T14:05:44;3.03;;;1.02;;
7515;SDS011;3799;47.184;8.538;2023-08-01T14:08:12;2.22;;;1.02;;
7515;SDS011;3799;47.184;8.538;2023-08-01T14:10:39;3.05;;;1.05;;
7515;SDS011;3799;47.184;8.538;2023-08-01T14:13:06;2.45;;;0.90;;
7515;SDS011;3799;47.184;8.538;2023-08-01T14:15:34;4.05;;;1.27;;
7515;SDS011;3799;47.184;8.538;2023-08-01T14:18:09;3.53;;;1.15;;
7515;SDS011;3799;47.184;8.538;2023-08-01T14:20:38;2.88;;;1.10;;
7515;SDS011;3799;47.184;8.538;2023-08-01T14:23:05;5.63;;;1.13;;
7515;SDS011;3799;47.184;8.538;2023-08-01T14:25:33;2.75;;;0.95;;
7515;SDS011;3799;47.184;8.538;2023-08-01T14:28:02;3.08;;;0.98;;
7515;SDS011;3799;47.184;8.538;2023-08-01T14:30:30;3.63;;;1.17;;
7515;SDS011;3799;47.184;8.538;2023-08-01T14:33:01;2.30;;;1.00;;
7515;SDS011;3799;47.184;8.538;2023-08-01T14:35:36;2.22;;;0.77;;
7515;SDS011;3799;47.184;8.538;2023-08-01T14:38:04;3.88;;;1.30;;
7515;SDS011;3799;47.184;8.538;2023-08-01T14:40:33;3.22;;;1.00;;
7515;SDS011;3799;47.184;8.538;2023-08-01T14:43:02;2.92;;;1.10;;
7515;SDS011;3799;47.184;8.538;2023-08-01T14:45:29;4.32;;;1.30;;
7515;SDS011;3799;47.184;8.538;2023-08-01T14:47:57;2.92;;;0.95;;
7515;SDS011;3799;47.184;8.538;2023-08-01T14:50:24;2.55;;;0.90;;
7515;SDS011;3799;47.184;8.538;2023-08-01T14:52:52;2.47;;;0.77;;
7515;SDS011;3799;47.184;8.538;2023-08-01T14:55:19;3.08;;;1.10;;
7515;SDS011;3799;47.184;8.538;2023-08-01T14:57:46;3.13;;;1.20;;
7515;SDS011;3799;47.184;8.538;2023-08-01T15:00:14;3.60;;;1.08;;
7515;SDS011;3799;47.184;8.538;2023-08-01T15:02:42;2.33;;;1.00;;
7515;SDS011;3799;47.184;8.538;2023-08-01T15:05:09;3.20;;;1.25;;
7515;SDS011;3799;47.184;8.538;2023-08-01T15:07:42;2.63;;;0.93;;
7515;SDS011;3799;47.184;8.538;2023-08-01T15:10:09;3.05;;;1.23;;
7515;SDS011;3799;47.184;8.538;2023-08-01T15:12:37;3.20;;;1.05;;
7515;SDS011;3799;47.184;8.538;2023-08-01T15:15:07;3.97;;;1.13;;
7515;SDS011;3799;47.184;8.538;2023-08-01T15:17:35;3.65;;;1.17;;
7515;SDS011;3799;47.184;8.538;2023-08-01T15:20:03;4.03;;;1.33;;
7515;SDS011;3799;47.184;8.538;2023-08-01T15:22:32;4.22;;;1.33;;
7515;SDS011;3799;47.184;8.538;2023-08-01T15:24:59;4.22;;;1.25;;
7515;SDS011;3799;47.184;8.538;2023-08-01T15:27:30;4.97;;;1.20;;
7515;SDS011;3799;47.184;8.538;2023-08-01T15:29:57;2.47;;;1.33;;
7515;SDS011;3799;47.184;8.538;2023-08-01T15:32:24;3.92;;;1.58;;
7515;SDS011;3799;47.184;8.538;2023-08-01T15:34:52;3.90;;;1.13;;
7515;SDS011;3799;47.184;8.538;2023-08-01T15:37:21;2.95;;;1.00;;
7515;SDS011;3799;47.184;8.538;2023-08-01T15:39:50;1.73;;;0.57;;
7515;SDS011;3799;47.184;8.538;2023-08-01T15:42:18;2.38;;;0.45;;
7515;SDS011;3799;47.184;8.538;2023-08-01T15:44:45;1.80;;;0.65;;
7515;SDS011;3799;47.184;8.538;2023-08-01T15:47:12;1.58;;;0.50;;
7515;SDS011;3799;47.184;8.538;2023-08-01T15:49:39;2.78;;;0.50;;
7515;SDS011;3799;47.184;8.538;2023-08-01T15:52:13;1.85;;;0.45;;